Time;durP1;ratioP1;P1;durP2;ratioP2;P2;SDS_P1;SDS_P2;PMS_P1;PMS_P2;Temp;Humidity;BMP_temperature;BMP_pressure;BME280_temperature;BME280_humidity;BME280_pressure;Samples;Min_cycle;Max_cycle;Signal;HPM_P1;HPM_P2
2021/09/05 00:03:14;;;;;;;10.90;8.00;;;;;;;16.90;65.27;102144.97;6169101;28;20238;-48
2021/09/05 00:06:35;;;;;;;10.27;8.97;;;;;;;16.77;65.54;102146.88;6171768;28;20218;-52
2021/09/05 00:09:56;;;;;;;9.03;6.93;;;;;;;17.00;64.53;102143.97;6151548;28;21186;-47
2021/09/05 00:13:18;;;;;;;10.03;9.00;;;;;;;16.83;65.07;102143.34;6159257;28;20234;-50
2021/09/05 00:16:39;;;;;;;10.83;8.07;;;;;;;16.73;65.29;102138.16;6180471;28;20235;-49
2021/09/05 00:20:00;;;;;;;9.70;8.70;;;;;;;16.66;65.77;102139.13;6156452;28;20667;-48
2021/09/05 00:23:22;;;;;;;10.73;7.57;;;;;;;16.78;64.85;102145.13;6154752;28;20230;-50
2021/09/05 00:26:46;;;;;;;10.43;7.93;;;;;;;16.76;65.11;102139.88;6164568;28;20610;-52
2021/09/05 00:30:10;;;;;;;11.07;9.37;;;;;;;16.77;64.79;102146.00;6182689;28;20241;-49
2021/09/05 00:33:31;;;;;;;7.63;6.93;;;;;;;16.79;64.50;102149.47;6160530;28;20252;-45
2021/09/05 00:36:52;;;;;;;7.97;7.17;;;;;;;16.57;65.60;102144.50;6182929;28;20229;-51
2021/09/05 00:40:17;;;;;;;9.70;8.07;;;;;;;16.66;65.27;102152.28;6181452;28;20234;-48
2021/09/05 00:43:57;;;;;;;10.57;8.57;;;;;;;16.49;65.75;102151.63;6143153;28;20238;-50
2021/09/05 00:47:19;;;;;;;11.03;8.47;;;;;;;16.38;65.95;102153.50;6178031;28;22285;-49
2021/09/05 00:50:42;;;;;;;8.80;7.87;;;;;;;16.35;65.82;102149.16;6148181;28;20249;-52
2021/09/05 00:54:06;;;;;;;10.93;9.07;;;;;;;16.38;65.91;102162.28;6172847;28;20601;-51
2021/09/05 00:57:27;;;;;;;9.30;7.73;;;;;;;16.30;65.76;102161.47;6184197;28;20234;-49
2021/09/05 01:00:49;;;;;;;8.37;7.57;;;;;;;16.22;66.27;102161.56;6168807;28;20268;-48
2021/09/05 01:04:13;;;;;;;8.43;7.63;;;;;;;16.21;66.31;102159.00;6149726;28;20352;-48
2021/09/05 01:07:34;;;;;;;7.83;7.03;;;;;;;16.06;66.85;102166.13;6154776;28;20238;-48
2021/09/05 01:10:56;;;;;;;8.70;6.93;;;;;;;16.22;66.22;102165.97;6144558;28;20533;-47
2021/09/05 01:14:18;;;;;;;6.70;6.10;;;;;;;16.34;65.44;102169.34;6171605;28;20238;-52
2021/09/05 01:17:39;;;;;;;9.90;6.83;;;;;;;16.17;66.24;102168.66;6161688;28;20238;-46
2021/09/05 01:21:20;;;;;;;9.80;7.27;;;;;;;15.89;67.21;102175.94;6180195;28;20226;-49
2021/09/05 01:25:16;;;;;;;10.17;7.13;;;;;;;15.98;66.92;102182.88;6181075;28;20234;-48
2021/09/05 01:28:58;;;;;;;9.03;8.07;;;;;;;15.96;66.86;102182.03;6184973;28;20497;-48
2021/09/05 01:32:37;;;;;;;7.67;6.97;;;;;;;15.79;67.18;102183.03;6179852;28;20233;-50
2021/09/05 01:36:30;;;;;;;8.90;7.10;;;;;;;15.83;67.09;102179.50;6180638;28;20229;-47
2021/09/05 01:40:17;;;;;;;8.73;7.07;;;;;;;15.99;66.50;102182.84;6181276;28;20252;-50
2021/09/05 01:44:05;;;;;;;8.17;6.17;;;;;;;16.04;65.94;102185.44;6161500;28;20230;-50
2021/09/05 01:47:55;;;;;;;6.70;5.33;;;;;;;15.97;66.06;102183.75;6140906;28;20226;-51
2021/09/05 01:51:45;;;;;;;8.27;6.50;;;;;;;15.89;66.42;102179.44;6177785;28;20256;-48
2021/09/05 01:55:44;;;;;;;6.17;5.57;;;;;;;15.81;66.49;102189.13;6164807;28;20229;-48
2021/09/05 01:59:24;;;;;;;10.27;6.87;;;;;;;15.99;65.83;102187.22;6178466;28;20241;-48
2021/09/05 02:03:21;;;;;;;6.93;6.30;;;;;;;15.91;66.17;102185.53;6126566;28;20555;-50
2021/09/05 02:06:54;;;;;;;7.50;6.80;;;;;;;15.86;66.08;102189.97;6140002;28;20223;-48
2021/09/05 02:10:34;;;;;;;9.27;7.30;;;;;;;15.71;66.82;102195.34;6153287;28;20233;-49
2021/09/05 02:14:13;;;;;;;9.30;7.53;;;;;;;15.82;66.16;102200.50;6147530;28;20709;-47
2021/09/05 02:17:48;;;;;;;8.37;6.30;;;;;;;15.63;66.92;102200.66;6153169;28;20233;-47
2021/09/05 02:21:35;;;;;;;6.83;6.13;;;;;;;15.59;67.21;102204.19;6151346;28;20230;-49
2021/09/05 02:25:14;;;;;;;7.47;5.87;;;;;;;15.82;65.91;102198.78;6176018;28;20230;-50
2021/09/05 02:29:01;;;;;;;7.13;6.20;;;;;;;15.70;66.39;102198.81;6183687;28;20229;-52
2021/09/05 02:32:48;;;;;;;7.03;6.30;;;;;;;15.67;66.53;102204.13;6184353;28;20598;-47
2021/09/05 02:36:40;;;;;;;8.07;6.47;;;;;;;15.61;66.53;102201.56;6145113;28;20234;-49
2021/09/05 02:40:24;;;;;;;8.20;6.63;;;;;;;15.40;67.25;102207.84;6176669;28;20575;-49
2021/09/05 02:44:05;;;;;;;7.57;6.53;;;;;;;15.64;66.38;102197.13;6161173;28;20584;-52
2021/09/05 02:47:48;;;;;;;7.27;5.97;;;;;;;15.58;66.44;102201.56;6171268;28;20274;-51
2021/09/05 02:51:29;;;;;;;9.70;7.30;;;;;;;15.58;66.38;102202.44;6182494;28;21182;-51
2021/09/05 02:55:10;;;;;;;5.90;5.20;;;;;;;15.55;66.09;102203.34;6172186;28;20234;-51
2021/09/05 02:58:54;;;;;;;7.17;5.90;;;;;;;15.59;66.05;102201.56;6183602;28;20225;-48
2021/09/05 03:02:34;;;;;;;8.03;6.70;;;;;;;15.36;66.92;102201.72;6171493;28;20221;-50
2021/09/05 03:06:17;;;;;;;6.93;5.87;;;;;;;15.61;66.04;102196.31;6160828;28;20321;-51
2021/09/05 03:10:01;;;;;;;8.43;7.53;;;;;;;15.46;66.51;102199.91;6178249;28;20227;-48
2021/09/05 03:13:50;;;;;;;6.40;5.60;;;;;;;15.37;66.61;102203.44;6154944;28;20247;-48
2021/09/05 03:17:34;;;;;;;6.93;4.73;;;;;;;15.43;65.98;102206.06;6177054;28;20226;-49
2021/09/05 03:21:27;;;;;;;6.27;5.60;;;;;;;15.08;67.18;102209.78;6165141;28;20724;-48
2021/09/05 03:25:05;;;;;;;8.67;7.00;;;;;;;15.19;66.92;102203.59;6160429;28;20235;-50
2021/09/05 03:28:46;;;;;;;14.13;5.67;;;;;;;15.05;67.48;102201.91;6145435;28;20326;-46
2021/09/05 03:32:25;;;;;;;7.47;6.53;;;;;;;15.10;66.72;102202.78;6137092;28;20261;-53
2021/09/05 03:36:24;;;;;;;7.23;6.33;;;;;;;15.03;67.11;102200.19;6174063;28;20283;-49
2021/09/05 03:39:57;;;;;;;6.77;6.07;;;;;;;14.94;67.51;102203.72;6155030;28;20229;-51
2021/09/05 03:43:41;;;;;;;8.93;5.47;;;;;;;15.20;66.67;102206.22;6179802;28;20519;-46
2021/09/05 03:47:17;;;;;;;8.67;6.43;;;;;;;14.96;67.27;102197.56;6186554;28;20259;-51
2021/09/05 03:50:59;;;;;;;6.13;5.50;;;;;;;15.00;66.99;102197.56;6152612;28;20246;-51
2021/09/05 03:54:21;;;;;;;6.53;4.87;;;;;;;15.07;66.64;102205.41;6168386;28;20234;-49
2021/09/05 03:57:44;;;;;;;7.73;6.03;;;;;;;15.03;66.83;102198.44;6170828;28;20237;-49
2021/09/05 04:01:05;;;;;;;7.57;5.47;;;;;;;14.96;66.86;102199.34;6151971;28;20229;-53
2021/09/05 04:04:30;;;;;;;6.30;5.07;;;;;;;14.92;66.87;102201.09;6148737;28;20225;-53
2021/09/05 04:08:11;;;;;;;7.73;5.73;;;;;;;14.81;67.31;102210.81;6146474;28;20253;-49
2021/09/05 04:11:33;;;;;;;8.10;5.50;;;;;;;14.77;67.23;102201.16;6170865;28;20642;-47
2021/09/05 04:14:55;;;;;;;5.70;5.20;;;;;;;14.91;66.70;102206.38;6160963;28;20738;-47
2021/09/05 04:18:16;;;;;;;6.43;5.73;;;;;;;14.86;66.78;102206.38;6156212;28;20781;-49
2021/09/05 04:21:37;;;;;;;6.13;5.27;;;;;;;14.80;67.26;102206.41;6171604;28;20320;-51
2021/09/05 04:24:58;;;;;;;5.67;4.97;;;;;;;14.63;67.55;102201.25;6171419;28;20603;-46
2021/09/05 04:28:19;;;;;;;9.10;6.07;;;;;;;14.82;66.75;102209.03;6176473;28;20265;-45
2021/09/05 04:31:41;;;;;;;6.60;5.90;;;;;;;14.71;67.08;102207.34;6163792;28;20246;-50
2021/09/05 04:35:02;;;;;;;7.90;5.13;;;;;;;14.74;66.76;102202.06;6149835;28;20239;-46
2021/09/05 04:38:23;;;;;;;7.43;4.97;;;;;;;14.62;67.42;102201.25;6160564;28;20249;-47
2021/09/05 04:41:46;;;;;;;6.20;5.57;;;;;;;14.69;66.78;102206.44;6174278;28;20324;-49
2021/09/05 04:45:07;;;;;;;6.10;4.07;;;;;;;14.67;67.26;102208.22;6158364;28;20258;-48
2021/09/05 04:48:29;;;;;;;6.90;5.20;;;;;;;14.77;66.61;102209.03;6171660;28;20238;-54
2021/09/05 04:51:51;;;;;;;7.00;5.57;;;;;;;14.77;66.56;102209.03;6174341;28;20245;-48
2021/09/05 04:55:12;;;;;;;5.80;5.23;;;;;;;14.76;66.17;102221.28;6164921;28;20350;-52
2021/09/05 04:58:33;;;;;;;5.20;4.40;;;;;;;14.63;66.77;102216.97;6146788;28;20746;-50
2021/09/05 05:01:53;;;;;;;7.00;5.57;;;;;;;14.73;66.45;102229.19;6151370;28;20230;-46
2021/09/05 05:05:16;;;;;;;6.10;4.83;;;;;;;14.82;65.90;102224.78;6169024;28;20246;-48
2021/09/05 05:08:37;;;;;;;6.37;5.63;;;;;;;14.89;65.92;102226.50;6164804;28;21005;-51
2021/09/05 05:11:58;;;;;;;5.80;4.50;;;;;;;14.87;65.77;102230.84;6178186;28;20340;-53
2021/09/05 05:15:19;;;;;;;6.90;4.50;;;;;;;14.89;65.97;102235.22;6177086;28;20228;-52
2021/09/05 05:18:41;;;;;;;6.70;5.33;;;;;;;14.95;65.72;102234.34;6146739;28;20237;-53
2021/09/05 05:22:05;;;;;;;6.23;5.37;;;;;;;14.90;65.95;102234.34;6179245;28;20349;-51
2021/09/05 05:25:26;;;;;;;5.80;5.20;;;;;;;14.98;65.63;102231.69;6174104;28;20214;-50
2021/09/05 05:28:47;;;;;;;5.73;5.03;;;;;;;15.21;64.72;102228.94;6181436;28;20230;-49
2021/09/05 05:32:08;;;;;;;8.90;5.97;;;;;;;15.03;65.54;102235.16;6178984;28;20620;-48
2021/09/05 05:35:29;;;;;;;5.30;4.33;;;;;;;15.16;65.10;102239.47;6183712;28;20242;-51
2021/09/05 05:38:52;;;;;;;7.57;6.03;;;;;;;15.20;65.04;102242.06;6171312;28;20257;-47
2021/09/05 05:42:12;;;;;;;5.70;4.13;;;;;;;15.50;63.96;102249.75;6179807;28;20356;-51
2021/09/05 05:45:34;;;;;;;6.23;4.10;;;;;;;15.47;64.23;102241.00;6173788;28;20231;-52
2021/09/05 05:48:55;;;;;;;5.23;4.73;;;;;;;15.41;64.40;102254.19;6158908;28;20226;-47
2021/09/05 05:52:16;;;;;;;5.37;4.83;;;;;;;15.28;65.11;102250.78;6168873;28;20230;-53
2021/09/05 05:55:38;;;;;;;4.67;4.23;;;;;;;15.52;64.21;102255.84;6162509;28;20230;-51
2021/09/05 05:58:59;;;;;;;4.37;3.97;;;;;;;15.54;64.06;102254.09;6180524;28;20225;-54
2021/09/05 06:02:20;;;;;;;4.20;3.80;;;;;;;15.42;64.20;102254.19;6171861;28;20237;-51
2021/09/05 06:05:41;;;;;;;5.73;3.70;;;;;;;15.32;65.13;102257.75;6156513;28;20255;-48
2021/09/05 06:09:03;;;;;;;4.00;3.20;;;;;;;15.24;64.52;102268.28;6166597;28;20230;-50
2021/09/05 06:12:26;;;;;;;8.17;4.37;;;;;;;15.05;65.18;102264.88;6166539;28;20241;-51
2021/09/05 06:15:46;;;;;;;5.73;4.77;;;;;;;15.37;64.18;102266.44;6166501;28;20234;-52
2021/09/05 06:19:07;;;;;;;9.97;4.80;;;;;;;15.61;63.50;102268.06;6172882;28;20239;-51
2021/09/05 06:22:28;;;;;;;4.57;3.83;;;;;;;15.68;63.00;102271.50;6169856;28;20233;-49
2021/09/05 06:25:49;;;;;;;3.87;2.97;;;;;;;15.50;63.77;102276.00;6162808;28;20226;-51
2021/09/05 06:29:11;;;;;;;4.30;3.37;;;;;;;15.88;62.45;102269.66;6173683;28;20226;-49
2021/09/05 06:32:31;;;;;;;3.97;3.40;;;;;;;15.92;62.30;102273.13;6170489;28;20226;-48
2021/09/05 06:35:52;;;;;;;5.00;3.97;;;;;;;15.64;63.04;102280.28;6133854;28;1057625;-45
2021/09/05 06:39:14;;;;;;;10.67;4.23;;;;;;;15.83;62.45;102281.94;6147653;28;20238;-52
2021/09/05 06:42:35;;;;;;;4.73;3.97;;;;;;;16.07;61.72;102265.09;6163431;28;20226;-52
2021/09/05 06:45:57;;;;;;;7.60;3.97;;;;;;;16.20;61.50;102271.09;6182483;28;20222;-49
2021/09/05 06:49:18;;;;;;;5.40;3.40;;;;;;;16.38;60.56;102269.19;6171563;28;20230;-45
2021/09/05 06:52:39;;;;;;;4.70;3.60;;;;;;;15.92;61.32;102267.88;6155169;28;20311;-46
2021/09/05 06:56:00;;;;;;;4.37;3.33;;;;;;;16.20;60.60;102271.09;6159513;28;20230;-46
2021/09/05 06:59:21;;;;;;;3.93;3.63;;;;;;;16.29;60.59;102271.03;6170235;28;20238;-51
2021/09/05 07:02:43;;;;;;;7.20;4.47;;;;;;;16.44;60.24;102277.00;6161151;28;20237;-51
2021/09/05 07:06:05;;;;;;;5.13;4.63;;;;;;;16.47;60.48;102282.25;6167914;28;20225;-48
2021/09/05 07:09:26;;;;;;;4.70;3.73;;;;;;;16.58;59.32;102283.00;6159636;28;21982;-50
2021/09/05 07:12:47;;;;;;;5.07;4.13;;;;;;;16.73;59.08;102272.31;6160363;28;20523;-46
2021/09/05 07:16:08;;;;;;;4.37;3.97;;;;;;;16.71;59.01;102268.84;6158069;28;20234;-51
2021/09/05 07:19:30;;;;;;;5.63;4.17;;;;;;;16.88;58.93;102271.28;6183536;28;20553;-50
2021/09/05 07:22:52;;;;;;;5.00;3.93;;;;;;;16.96;58.27;102267.69;6177139;28;20326;-49
2021/09/05 07:26:13;;;;;;;3.90;3.20;;;;;;;17.07;57.69;102274.56;6163181;28;20235;-50
2021/09/05 07:29:34;;;;;;;6.43;3.53;;;;;;;17.11;57.21;102273.63;6436144;22;20491;-50
2021/09/05 07:32:55;;;;;;;3.37;3.07;;;;;;;16.95;57.42;102274.72;6114206;28;20242;-50
2021/09/05 07:36:17;;;;;;;3.07;2.67;;;;;;;17.16;57.18;102283.19;6150391;28;20230;-49
2021/09/05 07:39:38;;;;;;;4.37;3.00;;;;;;;17.18;57.19;102284.94;6129385;28;20438;-51
2021/09/05 07:42:59;;;;;;;4.80;3.37;;;;;;;17.40;56.92;102289.91;6144452;28;21238;-52
2021/09/05 07:46:20;;;;;;;5.20;2.85;;;;;;;18.16;58.73;102279.94;6156910;28;20324;-53
2021/09/05 07:49:42;;;;;;;4.25;3.20;;;;;;;18.13;55.88;102285.28;6143747;28;20238;-50
2021/09/05 07:53:04;;;;;;;514.23;414.40;;;;;;;18.53;54.06;102281.91;6146542;28;20606;-50
2021/09/05 07:56:25;;;;;;;50.13;45.10;;;;;;;18.95;52.68;102282.00;6158316;28;20233;-49
2021/09/05 07:59:46;;;;;;;186.97;174.83;;;;;;;18.37;53.72;102286.59;6151691;28;20234;-54
2021/09/05 08:03:07;;;;;;;400.85;356.48;;;;;;;18.55;53.03;102288.03;6132451;28;20230;-49
2021/09/05 08:06:28;;;;;;;1156.97;999.90;;;;;;;18.94;54.46;102293.47;6126615;28;20242;-54
2021/09/05 08:09:50;;;;;;;135.88;121.60;;;;;;;19.20;51.89;102279.69;6121392;28;20682;-49
2021/09/05 08:13:11;;;;;;;33.83;30.90;;;;;;;18.82;53.03;102293.69;6139649;28;20242;-50
2021/09/05 08:16:33;;;;;;;9.77;7.65;;;;;;;19.18;52.38;102296.47;6159161;28;20559;-45
2021/09/05 08:19:54;;;;;;;6.10;5.47;;;;;;;19.68;51.86;102297.13;6136304;28;20333;-47
2021/09/05 08:23:15;;;;;;;5.72;4.63;;;;;;;19.90;51.74;102296.63;6152139;28;20242;-46
2021/09/05 08:26:37;;;;;;;5.78;4.10;;;;;;;20.21;51.82;102292.28;6165913;28;21089;-48
2021/09/05 08:29:58;;;;;;;3.17;2.88;;;;;;;20.33;49.59;102291.09;6150761;28;20234;-50
2021/09/05 08:33:19;;;;;;;4.28;3.30;;;;;;;19.89;50.87;102301.03;6148077;28;20241;-48
2021/09/05 08:36:40;;;;;;;3.67;3.22;;;;;;;20.28;49.77;102303.59;6153589;28;20348;-51
2021/09/05 08:40:01;;;;;;;4.32;3.58;;;;;;;20.01;49.32;102307.81;6166150;28;20619;-47
2021/09/05 08:43:24;;;;;;;6.57;5.18;;;;;;;19.33;51.59;102301.44;6151512;28;20321;-48
2021/09/05 08:46:45;;;;;;;4.22;3.63;;;;;;;19.88;51.40;102309.00;6166559;28;20344;-48
2021/09/05 08:50:07;;;;;;;4.07;3.45;;;;;;;20.22;49.70;102301.97;6171412;28;20238;-47
2021/09/05 08:53:28;;;;;;;4.95;3.72;;;;;;;20.38;49.88;102310.34;6152317;28;20320;-52
2021/09/05 08:56:49;;;;;;;4.18;3.78;;;;;;;20.55;48.82;102314.31;6170743;28;20326;-46
2021/09/05 09:00:13;;;;;;;4.97;4.57;;;;;;;20.43;49.45;102323.44;6152640;28;20446;-48
2021/09/05 09:03:37;;;;;;;5.68;4.03;;;;;;;19.60;49.94;102325.47;6151777;28;20711;-46
2021/09/05 09:06:58;;;;;;;5.57;3.33;;;;;;;19.93;50.26;102328.25;6153518;28;20552;-49
2021/09/05 09:10:18;;;;;;;4.20;3.30;;;;;;;19.84;50.39;102326.72;6165418;28;20266;-48
2021/09/05 09:13:40;;;;;;;3.85;3.20;;;;;;;20.36;49.95;102321.91;6135953;28;20651;-45
2021/09/05 09:17:03;;;;;;;5.03;2.92;;;;;;;20.66;49.24;102320.22;6141475;28;20635;-50
2021/09/05 09:20:34;;;;;;;3.83;3.08;;;;;;;21.04;48.18;102315.63;6152169;28;20688;-48
2021/09/05 09:23:55;;;;;;;3.85;3.45;;;;;;;20.69;48.46;102319.28;6141752;28;20607;-48
2021/09/05 09:27:17;;;;;;;4.55;4.10;;;;;;;19.98;49.50;102318.44;6148827;28;20327;-47
2021/09/05 09:30:38;;;;;;;6.13;3.72;;;;;;;20.14;49.38;102325.09;6155729;28;20234;-52
2021/09/05 09:34:00;;;;;;;6.40;4.78;;;;;;;20.26;50.00;102316.84;6167241;28;20234;-47
2021/09/05 09:37:23;;;;;;;4.18;3.38;;;;;;;20.88;48.93;102315.22;6162606;28;20316;-50
2021/09/05 09:40:44;;;;;;;6.70;3.85;;;;;;;20.64;48.59;102314.09;6173182;28;20229;-51
2021/09/05 09:44:06;;;;;;;4.65;3.45;;;;;;;20.58;48.54;102311.59;6164643;28;20324;-47
2021/09/05 09:47:38;;;;;;;5.53;4.03;;;;;;;21.19;48.69;102309.88;6166486;28;20237;-48
2021/09/05 09:51:01;;;;;;;3.83;3.33;;;;;;;20.98;48.11;102306.09;6168927;28;20735;-54
2021/09/05 09:54:22;;;;;;;3.20;2.75;;;;;;;21.83;47.99;102307.03;6154378;28;20235;-46
2021/09/05 09:57:43;;;;;;;13.52;3.40;;;;;;;22.25;46.89;102299.47;6166879;28;20326;-52
2021/09/05 10:01:05;;;;;;;4.70;3.63;;;;;;;22.07;46.14;102307.13;6170556;28;20317;-47
2021/09/05 10:04:29;;;;;;;3.80;3.20;;;;;;;22.13;46.89;102298.09;6165926;28;20229;-46
2021/09/05 10:07:52;;;;;;;4.00;3.30;;;;;;;22.45;45.39;102302.31;6165382;28;20234;-50
2021/09/05 10:11:18;;;;;;;5.07;4.55;;;;;;;22.68;44.86;102303.25;6177573;28;20265;-50
2021/09/05 10:14:39;;;;;;;5.20;3.95;;;;;;;22.49;45.25;102303.94;6141185;28;20324;-49
2021/09/05 10:18:00;;;;;;;10.77;4.38;;;;;;;22.75;44.79;102302.13;6150487;28;20230;-47
2021/09/05 10:21:22;;;;;;;4.45;4.03;;;;;;;22.09;45.00;102307.94;6173328;28;20630;-48
2021/09/05 10:24:48;;;;;;;5.47;3.33;;;;;;;22.17;45.25;102300.56;6167684;28;22261;-47
2021/09/05 10:28:10;;;;;;;8.98;5.47;;;;;;;22.85;44.37;102295.53;6158885;28;20828;-53
2021/09/05 10:31:38;;;;;;;4.90;4.40;;;;;;;23.23;44.09;102298.56;6173581;28;20230;-50
2021/09/05 10:34:58;;;;;;;8.43;3.90;;;;;;;23.75;43.74;102290.28;6179836;28;20323;-50
2021/09/05 10:38:25;;;;;;;4.97;4.43;;;;;;;23.79;42.20;102289.28;6162628;28;20230;-50
2021/09/05 10:41:50;;;;;;;4.57;4.18;;;;;;;23.27;43.70;102297.50;6169987;28;20234;-52
2021/09/05 10:45:13;;;;;;;5.15;4.18;;;;;;;23.35;43.64;102291.88;6176890;28;20234;-51
2021/09/05 10:48:36;;;;;;;4.10;3.70;;;;;;;24.15;42.87;102289.47;6161184;28;20230;-48
2021/09/05 10:51:57;;;;;;;3.92;3.58;;;;;;;24.28;42.28;102286.31;6171177;28;20316;-51
2021/09/05 10:55:20;;;;;;;5.72;4.05;;;;;;;24.87;40.87;102277.47;6176537;28;20627;-49
2021/09/05 10:58:47;;;;;;;6.80;4.53;;;;;;;25.14;40.74;102277.97;6168945;28;20245;-45
2021/09/05 11:02:09;;;;;;;4.53;4.03;;;;;;;24.79;40.36;102279.59;6174720;28;20226;-49
2021/09/05 11:05:29;;;;;;;9.50;5.43;;;;;;;24.99;40.27;102288.47;6182965;28;20241;-53
2021/09/05 11:08:51;;;;;;;9.05;7.97;;;;;;;25.39;38.79;102279.47;6170379;28;20241;-48
2021/09/05 11:12:15;;;;;;;7.00;6.40;;;;;;;26.08;38.09;102278.72;6173616;28;20333;-47
2021/09/05 11:15:38;;;;;;;4.45;4.05;;;;;;;26.59;36.19;102285.91;6173132;28;20244;-51
2021/09/05 11:19:01;;;;;;;5.25;4.10;;;;;;;29.15;31.41;102280.69;6166416;28;20237;-51
2021/09/05 11:22:25;;;;;;;5.00;4.45;;;;;;;31.24;26.27;102283.38;6174147;28;20229;-51
2021/09/05 11:25:46;;;;;;;4.68;4.28;;;;;;;32.11;26.65;102273.22;6174680;28;20635;-52
2021/09/05 11:29:23;;;;;;;5.32;4.30;;;;;;;31.73;27.67;102271.63;6162968;28;20230;-56
2021/09/05 11:32:46;;;;;;;4.97;4.47;;;;;;;33.63;24.95;102269.03;6171372;28;20238;-53
2021/09/05 11:36:10;;;;;;;6.05;4.13;;;;;;;35.28;23.32;102277.06;6177712;28;20237;-51
2021/09/05 11:39:34;;;;;;;9.02;5.22;;;;;;;35.35;22.84;102277.38;6173615;28;20510;-54
2021/09/05 11:42:58;;;;;;;4.53;4.03;;;;;;;35.67;21.43;102270.81;6175070;28;20233;-54
2021/09/05 11:46:21;;;;;;;6.28;4.30;;;;;;;36.01;21.26;102267.66;6189550;28;20221;-51
2021/09/05 11:49:49;;;;;;;4.88;3.83;;;;;;;30.47;27.95;102272.75;6170530;28;20233;-52
2021/09/05 11:53:19;;;;;;;10.73;4.60;;;;;;;33.41;24.66;102272.66;6167399;28;20253;-52
2021/09/05 11:56:40;;;;;;;5.03;4.30;;;;;;;35.21;22.03;102275.94;6153827;28;20226;-48
2021/09/05 12:00:06;;;;;;;4.85;4.18;;;;;;;36.39;20.26;102266.69;6159388;28;20241;-50
2021/09/05 12:03:36;;;;;;;4.47;3.83;;;;;;;37.05;19.13;102262.91;6149009;28;20233;-52
2021/09/05 12:06:58;;;;;;;5.28;4.22;;;;;;;35.57;19.37;102272.66;6144649;28;20229;-52
2021/09/05 12:10:21;;;;;;;5.18;3.85;;;;;;;36.02;18.78;102269.34;6151981;28;20226;-51
2021/09/05 12:13:54;;;;;;;5.38;4.07;;;;;;;35.94;18.55;102266.50;6145989;28;20238;-53
2021/09/05 12:17:18;;;;;;;6.05;4.07;;;;;;;38.18;16.50;102265.09;6146992;28;20241;-51
2021/09/05 12:20:41;;;;;;;3.63;3.33;;;;;;;36.59;17.36;102267.44;6163316;28;20230;-48
2021/09/05 12:24:13;;;;;;;3.72;3.33;;;;;;;37.07;16.36;102262.78;6144465;28;20253;-53
2021/09/05 12:27:35;;;;;;;4.10;3.70;;;;;;;37.27;16.62;102268.94;6177087;28;20237;-53
2021/09/05 12:30:58;;;;;;;3.90;3.60;;;;;;;37.46;17.24;102264.31;6186512;28;20308;-51
2021/09/05 12:34:39;;;;;;;4.20;3.80;;;;;;;37.96;17.00;102263.72;6161080;28;20234;-50
2021/09/05 12:38:08;;;;;;;3.78;3.47;;;;;;;37.04;17.85;102255.75;6169384;28;20316;-55
2021/09/05 12:41:33;;;;;;;4.10;3.80;;;;;;;37.53;17.64;102259.97;6183837;28;20224;-55
2021/09/05 12:44:59;;;;;;;5.15;4.70;;;;;;;38.34;17.83;102253.44;6164852;28;20705;-50
2021/09/05 12:48:25;;;;;;;5.45;4.05;;;;;;;39.03;15.90;102264.25;6175763;28;20778;-54
2021/09/05 12:51:49;;;;;;;3.97;3.53;;;;;;;38.70;15.94;102253.25;6188550;28;20226;-53
2021/09/05 12:55:11;;;;;;;4.43;4.07;;;;;;;38.00;17.34;102252.38;6177467;28;20234;-53
2021/09/05 12:58:34;;;;;;;3.95;3.65;;;;;;;39.33;15.21;102249.97;6175121;28;20552;-48
2021/09/05 13:01:55;;;;;;;4.30;3.92;;;;;;;38.64;15.36;102245.75;6180858;28;20827;-54
2021/09/05 13:05:17;;;;;;;3.45;3.13;;;;;;;37.52;16.33;102236.56;6185038;28;20997;-52
2021/09/05 13:08:38;;;;;;;4.10;3.55;;;;;;;37.63;16.03;102239.03;6174302;28;20229;-52
2021/09/05 13:12:00;;;;;;;7.40;6.80;;;;;;;38.81;15.72;102239.31;6179867;28;22159;-54
2021/09/05 13:15:23;;;;;;;4.18;3.88;;;;;;;39.66;15.55;102239.09;6188241;28;20237;-54
2021/09/05 13:18:45;;;;;;;4.05;3.47;;;;;;;39.54;15.17;102237.75;6159840;28;20234;-53
2021/09/05 13:22:05;;;;;;;4.00;3.70;;;;;;;38.77;15.40;102232.50;6165428;28;20261;-55
2021/09/05 13:25:27;;;;;;;3.85;3.05;;;;;;;35.92;17.50;102238.72;6176275;28;20542;-52
2021/09/05 13:28:52;;;;;;;4.82;4.38;;;;;;;35.27;19.13;102237.47;6179746;28;20300;-54
2021/09/05 13:32:15;;;;;;;6.63;3.83;;;;;;;33.08;21.12;102227.72;6174899;28;20295;-54
2021/09/05 13:35:36;;;;;;;4.60;3.67;;;;;;;29.98;25.24;102226.00;6184545;28;20690;-50
2021/09/05 13:38:58;;;;;;;4.35;3.83;;;;;;;34.39;20.94;102216.59;6173290;28;20320;-53
2021/09/05 13:42:19;;;;;;;7.65;4.40;;;;;;;34.79;20.13;102210.34;6179351;28;20241;-53
2021/09/05 13:45:42;;;;;;;5.65;5.10;;;;;;;34.73;21.04;102213.59;6184000;28;20230;-51
2021/09/05 13:49:04;;;;;;;5.30;4.20;;;;;;;30.92;25.27;102212.16;6175407;28;20229;-51
2021/09/05 13:52:26;;;;;;;4.70;4.22;;;;;;;27.30;30.71;102210.69;6175672;28;20257;-49
2021/09/05 13:55:49;;;;;;;6.85;4.50;;;;;;;27.52;31.35;102209.44;6186519;28;20253;-47
2021/09/05 13:59:10;;;;;;;5.68;4.38;;;;;;;31.92;25.38;102191.13;6171746;28;20249;-52
2021/09/05 14:02:31;;;;;;;5.57;4.35;;;;;;;27.46;31.25;102199.97;6174611;28;20229;-53
2021/09/05 14:05:54;;;;;;;6.05;5.30;;;;;;;28.53;30.47;102202.44;6187525;28;20238;-51
2021/09/05 14:09:15;;;;;;;7.47;5.63;;;;;;;27.50;32.73;102202.34;6173264;28;20237;-50
2021/09/05 14:12:37;;;;;;;5.68;5.13;;;;;;;26.51;34.49;102201.66;6178215;28;20236;-47
2021/09/05 14:16:01;;;;;;;6.97;6.32;;;;;;;25.65;36.27;102200.84;6183802;28;20580;-51
2021/09/05 14:19:23;;;;;;;5.57;5.07;;;;;;;27.94;32.98;102195.34;6179253;28;20237;-49
2021/09/05 14:22:45;;;;;;;7.53;6.82;;;;;;;31.08;28.13;102206.50;6180803;28;20232;-52
2021/09/05 14:26:13;;;;;;;7.47;6.72;;;;;;;29.42;29.80;102202.88;6192712;28;20233;-51
2021/09/05 14:29:38;;;;;;;6.68;6.10;;;;;;;29.22;30.11;102201.53;6177565;28;20258;-49
2021/09/05 14:33:09;;;;;;;9.18;7.30;;;;;;;28.57;31.59;102206.66;6181015;28;20257;-53
2021/09/05 14:55:00;;;;;;;10.60;9.35;;;;;;;26.02;38.39;102214.97;6184536;28;20229;-47
2021/09/05 14:58:23;;;;;;;9.60;8.57;;;;;;;26.03;37.78;102208.69;6180350;28;20229;-51
2021/09/05 15:01:48;;;;;;;14.30;13.10;;;;;;;25.81;39.35;102208.06;6184443;28;20666;-52
2021/09/05 15:12:31;;;;;;;11.80;10.68;;;;;;;24.80;41.03;102209.41;6173687;28;20658;-53
2021/09/05 15:15:53;;;;;;;12.07;10.70;;;;;;;24.66;41.15;102210.06;6189045;28;20509;-51
2021/09/05 15:19:15;;;;;;;11.55;10.43;;;;;;;24.60;41.00;102204.13;6168592;28;20241;-53
2021/09/05 15:22:39;;;;;;;13.57;11.00;;;;;;;24.55;41.46;102207.88;6171284;28;20237;-50
2021/09/05 15:26:02;;;;;;;11.88;10.48;;;;;;;24.67;41.13;102206.44;6191551;28;20316;-54
2021/09/05 15:29:40;;;;;;;12.70;11.50;;;;;;;24.47;41.40;102206.50;6171352;28;20234;-52
2021/09/05 15:33:25;;;;;;;12.68;11.20;;;;;;;24.60;41.44;102205.00;6168607;28;20859;-52
2021/09/05 15:51:34;;;;;;;14.05;12.70;;;;;;;23.77;43.62;102204.19;6187544;28;20222;-52
2021/09/05 15:54:55;;;;;;;15.93;14.32;;;;;;;23.88;43.51;102202.88;6178626;28;22027;-49
2021/09/05 15:58:22;;;;;;;17.33;15.60;;;;;;;23.66;43.75;102195.78;6179578;28;20237;-48
2021/09/05 16:01:48;;;;;;;16.05;14.48;;;;;;;23.76;44.11;102196.25;6185732;28;20230;-54
2021/09/05 16:05:29;;;;;;;17.60;15.82;;;;;;;23.48;44.33;102196.59;6190230;28;20242;-49
2021/09/05 16:16:31;;;;;;;18.10;16.30;;;;;;;23.42;45.09;102191.50;6185965;28;20237;-51
2021/09/05 16:19:52;;;;;;;17.25;15.45;;;;;;;23.27;45.12;102207.16;6174699;28;20237;-53
2021/09/05 16:23:13;;;;;;;21.83;19.70;;;;;;;23.29;45.00;102199.13;6178532;28;20734;-52
2021/09/05 16:26:37;;;;;;;18.05;16.27;;;;;;;23.21;44.71;102199.44;6187445;28;20259;-50
2021/09/05 16:30:04;;;;;;;17.88;16.25;;;;;;;23.17;45.27;102204.00;6181511;28;20323;-56
2021/09/05 16:33:33;;;;;;;19.65;17.63;;;;;;;23.13;45.30;102207.72;6152335;28;20582;-56
2021/09/05 16:37:11;;;;;;;17.58;15.75;;;;;;;22.88;45.49;102213.09;6184886;28;20241;-51
2021/09/05 16:40:35;;;;;;;18.45;16.48;;;;;;;22.76;45.82;102210.88;6187061;28;22472;-53
2021/09/05 16:43:58;;;;;;;19.23;17.35;;;;;;;22.74;45.93;102212.75;6166770;28;20233;-53